createdAt,value
2017-10-26T00:00:12.415Z,13.71
2017-10-26T00:01:12.998Z,13.68
2017-10-26T00:02:13.573Z,13.68
2017-10-26T00:03:14.145Z,13.70
2017-10-26T00:04:14.718Z,13.71
2017-10-26T00:05:15.291Z,13.68
2017-10-26T00:06:15.865Z,13.65
2017-10-26T00:07:16.437Z,13.60
2017-10-26T00:08:17.010Z,13.56
2017-10-26T00:09:17.588Z,13.60
2017-10-26T00:10:18.168Z,13.57
2017-10-26T00:11:18.741Z,13.53
2017-10-26T00:12:19.326Z,13.52
2017-10-26T00:13:19.900Z,13.57
2017-10-26T00:14:20.473Z,13.49
2017-10-26T00:15:21.056Z,13.44
2017-10-26T00:16:21.627Z,13.47
2017-10-26T00:17:22.200Z,13.46
2017-10-26T00:18:22.773Z,13.46
2017-10-26T00:19:23.349Z,13.41
2017-10-26T00:20:23.933Z,13.42
2017-10-26T00:21:24.506Z,13.47
2017-10-26T00:22:25.077Z,13.47
2017-10-26T00:23:25.649Z,13.49
2017-10-26T00:24:26.224Z,13.41
2017-10-26T00:25:26.797Z,13.44
2017-10-26T00:26:27.373Z,13.42
2017-10-26T00:27:27.944Z,13.38
2017-10-26T00:28:28.517Z,13.52
2017-10-26T00:29:29.090Z,13.54
2017-10-26T00:30:29.674Z,13.44
2017-10-26T00:31:30.249Z,13.44
2017-10-26T00:32:30.821Z,13.53
2017-10-26T00:33:31.395Z,13.53
2017-10-26T00:34:31.964Z,13.53
2017-10-26T00:35:32.539Z,13.53
2017-10-26T00:36:33.111Z,13.53
2017-10-26T00:37:33.683Z,13.46
2017-10-26T00:38:34.253Z,13.44
2017-10-26T00:39:34.826Z,13.50
2017-10-26T00:40:35.409Z,13.50
2017-10-26T00:41:35.991Z,13.56
2017-10-26T00:42:36.565Z,13.54
2017-10-26T00:43:37.141Z,13.44
2017-10-26T00:44:37.711Z,13.44
2017-10-26T00:45:38.286Z,13.44
2017-10-26T00:46:38.860Z,13.44
2017-10-26T00:47:39.444Z,13.44
2017-10-26T00:48:40.017Z,13.41
2017-10-26T00:49:40.589Z,13.44
2017-10-26T00:50:41.161Z,13.49
2017-10-26T00:51:41.738Z,13.47
2017-10-26T00:52:42.309Z,13.44
2017-10-26T00:53:42.881Z,13.56
2017-10-26T00:54:43.454Z,13.44
2017-10-26T00:55:44.026Z,13.53
2017-10-26T00:56:44.599Z,13.50
2017-10-26T00:57:45.178Z,13.47
2017-10-26T00:58:45.744Z,13.46
2017-10-26T00:59:46.319Z,13.57
2017-10-26T01:00:46.891Z,13.52
2017-10-26T01:01:47.465Z,13.50
2017-10-26T01:02:48.037Z,13.46
2017-10-26T01:03:48.621Z,13.41
2017-10-26T01:04:49.196Z,13.50
2017-10-26T01:05:49.769Z,13.50
2017-10-26T01:06:50.344Z,13.50
2017-10-26T01:07:50.916Z,13.41
2017-10-26T01:08:51.496Z,13.50
2017-10-26T01:09:52.060Z,13.46
2017-10-26T01:10:52.632Z,13.46
2017-10-26T01:11:53.204Z,13.56
2017-10-26T01:12:53.777Z,13.46
2017-10-26T01:13:54.349Z,13.33
2017-10-26T01:14:54.920Z,13.56
2017-10-26T01:15:55.492Z,13.54
2017-10-26T01:16:56.067Z,13.49
2017-10-26T01:18:09.383Z,13.47
2017-10-26T01:19:09.957Z,13.50
2017-10-26T01:20:10.527Z,13.47
2017-10-26T01:21:11.100Z,13.52
2017-10-26T01:22:11.671Z,13.53
2017-10-26T01:23:12.243Z,13.52
2017-10-26T01:24:12.814Z,13.49
2017-10-26T01:25:13.385Z,13.53
2017-10-26T01:26:13.956Z,13.44
2017-10-26T01:27:14.528Z,13.50
2017-10-26T01:28:15.100Z,13.54
2017-10-26T01:29:15.670Z,13.59
2017-10-26T01:30:16.245Z,13.57
2017-10-26T01:31:16.812Z,13.53
2017-10-26T01:32:17.385Z,13.62
2017-10-26T01:33:17.955Z,13.59
2017-10-26T01:34:18.528Z,13.53
2017-10-26T01:35:19.110Z,13.52
2017-10-26T01:36:19.684Z,13.62
2017-10-26T01:37:20.256Z,13.65
2017-10-26T01:38:20.827Z,13.67
2017-10-26T01:39:21.398Z,13.68
2017-10-26T01:40:21.970Z,13.62
2017-10-26T01:41:22.555Z,13.59
2017-10-26T01:42:23.126Z,13.62
2017-10-26T01:43:23.700Z,13.60
2017-10-26T01:44:24.271Z,13.67
2017-10-26T01:45:24.855Z,13.62
2017-10-26T01:46:25.429Z,13.68
2017-10-26T01:47:26.001Z,13.67
2017-10-26T01:48:26.574Z,13.67
2017-10-26T01:49:27.147Z,13.68
2017-10-26T01:50:27.721Z,13.63
2017-10-26T01:51:28.292Z,13.70
2017-10-26T01:52:28.864Z,13.70
2017-10-26T01:53:29.434Z,13.74
2017-10-26T01:54:30.006Z,13.70
2017-10-26T01:55:30.590Z,13.70
2017-10-26T01:56:31.159Z,13.74
2017-10-26T01:57:31.734Z,13.65
2017-10-26T01:58:32.307Z,13.67
2017-10-26T01:59:32.879Z,13.63
2017-10-26T02:00:33.450Z,13.62
2017-10-26T02:01:34.022Z,13.65
2017-10-26T02:02:34.594Z,13.60
2017-10-26T02:03:35.166Z,13.59
2017-10-26T02:04:35.750Z,13.53
2017-10-26T02:05:36.308Z,13.54
2017-10-26T02:06:36.879Z,13.53
2017-10-26T02:07:37.452Z,13.59
2017-10-26T02:08:38.020Z,13.53
2017-10-26T02:09:38.592Z,13.52
2017-10-26T02:10:39.164Z,13.50
2017-10-26T02:11:39.737Z,13.50
2017-10-26T02:12:40.307Z,13.52
2017-10-26T02:13:40.881Z,13.52
2017-10-26T02:14:41.451Z,13.52
2017-10-26T02:15:42.024Z,13.53
2017-10-26T02:16:42.606Z,13.39
2017-10-26T02:17:43.179Z,13.42
2017-10-26T02:18:43.751Z,13.46
2017-10-26T02:19:44.323Z,13.41
2017-10-26T02:20:44.901Z,13.46
2017-10-26T02:21:45.467Z,13.46
2017-10-26T02:22:46.038Z,13.46
2017-10-26T02:23:46.610Z,13.56
2017-10-26T02:24:47.182Z,13.47
2017-10-26T02:25:47.757Z,13.50
2017-10-26T02:26:48.329Z,13.52
2017-10-26T02:27:48.903Z,13.49
2017-10-26T02:28:49.476Z,13.46
2017-10-26T02:29:50.048Z,13.54
2017-10-26T02:30:50.621Z,13.53
2017-10-26T02:31:51.192Z,13.41
2017-10-26T02:32:51.764Z,13.56
2017-10-26T02:33:52.337Z,13.56
2017-10-26T02:34:52.909Z,13.56
2017-10-26T02:35:53.480Z,13.53
2017-10-26T02:36:54.052Z,13.57
2017-10-26T02:37:54.636Z,13.56
2017-10-26T02:38:55.209Z,13.56
2017-10-26T02:39:55.779Z,13.56
2017-10-26T02:40:56.355Z,13.60
2017-10-26T02:41:56.923Z,13.56
2017-10-26T02:42:57.496Z,13.57
2017-10-26T02:43:58.069Z,13.68
2017-10-26T02:44:58.643Z,13.62
2017-10-26T02:45:59.212Z,13.67
2017-10-26T02:46:59.783Z,13.59
2017-10-26T02:48:00.354Z,13.65
2017-10-26T02:49:00.926Z,13.63
2017-10-26T02:50:01.497Z,13.59
2017-10-26T02:51:02.068Z,13.65
2017-10-26T02:52:02.639Z,13.65
2017-10-26T02:53:03.210Z,13.62
2017-10-26T02:54:03.783Z,13.62
2017-10-26T02:55:04.356Z,13.68
2017-10-26T02:56:04.931Z,13.60
2017-10-26T02:57:05.502Z,13.67
2017-10-26T02:58:06.077Z,13.56
2017-10-26T02:59:06.652Z,13.56
2017-10-26T03:00:07.220Z,13.56
2017-10-26T03:01:07.792Z,13.62
2017-10-26T03:02:08.363Z,13.59
2017-10-26T03:03:08.935Z,13.53
2017-10-26T03:04:09.508Z,13.52
2017-10-26T03:05:10.080Z,13.46
2017-10-26T03:06:10.659Z,13.46
2017-10-26T03:07:11.223Z,13.31
2017-10-26T03:08:11.795Z,13.46
2017-10-26T03:09:12.370Z,13.49
2017-10-26T03:10:12.936Z,13.39
2017-10-26T03:11:13.509Z,13.39
2017-10-26T03:12:14.079Z,13.41
2017-10-26T03:13:14.664Z,13.41
2017-10-26T03:14:15.236Z,13.37
2017-10-26T03:15:15.808Z,13.35
2017-10-26T03:16:16.379Z,13.31
2017-10-26T03:17:16.952Z,13.28
2017-10-26T03:18:17.525Z,13.30
2017-10-26T03:19:18.097Z,13.31
2017-10-26T03:20:18.667Z,13.28
2017-10-26T03:21:19.239Z,13.20
2017-10-26T03:22:19.811Z,13.31
2017-10-26T03:23:20.381Z,13.23
2017-10-26T03:24:20.952Z,13.38
2017-10-26T03:25:21.525Z,13.19
2017-10-26T03:26:22.095Z,13.35
2017-10-26T03:27:22.668Z,13.33
2017-10-26T03:28:23.251Z,13.19
2017-10-26T03:29:23.823Z,13.23
2017-10-26T03:30:24.397Z,13.18
2017-10-26T03:31:24.967Z,13.23
2017-10-26T03:32:25.539Z,13.37
2017-10-26T03:33:26.111Z,13.16
2017-10-26T03:34:26.682Z,13.16
2017-10-26T03:35:27.254Z,13.18
2017-10-26T03:36:27.829Z,13.25
2017-10-26T03:37:28.397Z,13.25
2017-10-26T03:38:28.970Z,13.18
2017-10-26T03:39:29.543Z,13.28
2017-10-26T03:40:30.115Z,13.19
2017-10-26T03:41:30.687Z,13.22
2017-10-26T03:42:31.263Z,13.22
2017-10-26T03:43:31.840Z,13.25
2017-10-26T03:44:32.412Z,13.35
2017-10-26T03:45:32.984Z,13.19
2017-10-26T03:46:33.557Z,13.20
2017-10-26T03:47:34.128Z,13.11
2017-10-26T03:48:34.708Z,13.13
2017-10-26T03:49:35.274Z,13.08
2017-10-26T03:50:35.849Z,13.09
2017-10-26T03:51:36.420Z,13.01
2017-10-26T03:52:36.994Z,13.05
2017-10-26T03:53:37.564Z,13.15
2017-10-26T03:54:38.137Z,13.05
2017-10-26T03:55:38.710Z,13.08
2017-10-26T03:56:39.281Z,13.13
2017-10-26T03:57:39.851Z,13.12
2017-10-26T03:58:40.422Z,13.19
2017-10-26T03:59:40.994Z,13.09
2017-10-26T04:00:41.565Z,13.11
2017-10-26T04:01:42.137Z,13.12
2017-10-26T04:02:42.709Z,13.12
2017-10-26T04:03:43.281Z,13.11
2017-10-26T04:04:43.851Z,13.11
2017-10-26T04:05:44.423Z,13.09
2017-10-26T04:06:44.995Z,13.09
2017-10-26T04:07:45.570Z,13.22
2017-10-26T04:08:46.141Z,13.19
2017-10-26T04:09:46.716Z,13.27
2017-10-26T04:10:47.286Z,13.28
2017-10-26T04:11:47.862Z,13.18
2017-10-26T04:12:48.431Z,13.28
2017-10-26T04:13:49.005Z,13.19
2017-10-26T04:14:49.578Z,13.23
2017-10-26T04:15:50.148Z,13.25
2017-10-26T04:16:50.718Z,13.23
2017-10-26T04:17:51.291Z,13.22
2017-10-26T04:18:51.862Z,13.30
2017-10-26T04:19:52.446Z,13.30
2017-10-26T04:20:53.020Z,13.28
2017-10-26T04:21:53.603Z,13.23
2017-10-26T04:22:54.186Z,13.18
2017-10-26T04:23:54.757Z,13.20
2017-10-26T04:24:55.330Z,13.19
2017-10-26T04:25:55.901Z,13.23
2017-10-26T04:26:56.473Z,13.19
2017-10-26T04:27:57.045Z,13.35
2017-10-26T04:28:57.617Z,13.30
2017-10-26T04:29:58.199Z,13.37
2017-10-26T04:30:58.771Z,13.30
2017-10-26T04:31:59.343Z,13.30
2017-10-26T04:32:59.915Z,13.28
2017-10-26T04:34:00.486Z,13.27
2017-10-26T04:35:01.057Z,13.33
2017-10-26T04:36:01.628Z,13.27
2017-10-26T04:37:02.205Z,13.22
2017-10-26T04:38:02.770Z,13.35
2017-10-26T04:39:03.341Z,13.23
2017-10-26T04:40:03.913Z,13.19
2017-10-26T04:41:04.484Z,13.20
2017-10-26T04:42:05.056Z,13.30
2017-10-26T04:43:05.628Z,13.28
2017-10-26T04:44:06.198Z,13.25
2017-10-26T04:45:06.771Z,13.23
2017-10-26T04:46:07.341Z,13.23
2017-10-26T04:47:07.914Z,13.23
2017-10-26T04:48:08.487Z,13.19
2017-10-26T04:49:09.061Z,13.30
2017-10-26T04:50:09.635Z,13.33
2017-10-26T04:51:10.205Z,13.19
2017-10-26T04:52:10.779Z,13.25
2017-10-26T04:53:11.351Z,13.35
2017-10-26T04:54:11.922Z,13.25
2017-10-26T04:55:12.492Z,13.27
2017-10-26T04:56:13.064Z,13.28
2017-10-26T04:57:13.636Z,13.23
2017-10-26T04:58:14.208Z,13.20
2017-10-26T04:59:14.778Z,13.25
2017-10-26T05:00:15.350Z,13.18
2017-10-26T05:01:16.071Z,13.23
2017-10-26T05:02:16.644Z,13.30
2017-10-26T05:03:17.215Z,13.33
2017-10-26T05:04:17.787Z,13.16
2017-10-26T05:05:18.359Z,13.20
2017-10-26T05:06:18.932Z,13.25
2017-10-26T05:07:19.506Z,13.19
2017-10-26T05:08:20.082Z,13.23
2017-10-26T05:09:20.652Z,13.18
2017-10-26T05:10:21.223Z,13.25
2017-10-26T05:11:21.794Z,13.12
2017-10-26T05:12:22.367Z,13.15
2017-10-26T05:13:22.940Z,13.16
2017-10-26T05:14:23.511Z,13.16
2017-10-26T05:15:24.092Z,13.16
2017-10-26T05:16:24.665Z,13.16
2017-10-26T05:17:25.247Z,13.18
2017-10-26T05:18:25.819Z,13.20
2017-10-26T05:19:26.402Z,13.12
2017-10-26T05:20:26.976Z,13.16
2017-10-26T05:21:27.547Z,13.16
2017-10-26T05:22:28.117Z,13.15
2017-10-26T05:23:28.689Z,13.19
2017-10-26T05:24:29.272Z,13.12
2017-10-26T05:25:29.845Z,13.13
2017-10-26T05:26:30.517Z,13.18
2017-10-26T05:27:31.087Z,13.05
2017-10-26T05:28:31.662Z,13.03
2017-10-26T05:29:32.236Z,13.08
2017-10-26T05:30:32.807Z,13.05
2017-10-26T05:31:33.378Z,13.11
2017-10-26T05:32:33.951Z,13.08
2017-10-26T05:33:34.522Z,12.98
2017-10-26T05:34:35.095Z,13.11
2017-10-26T05:35:35.665Z,13.04
2017-10-26T05:36:36.237Z,13.05
2017-10-26T05:37:36.822Z,13.04
2017-10-26T05:38:37.392Z,13.03
2017-10-26T05:39:37.966Z,13.15
2017-10-26T05:40:38.536Z,13.08
2017-10-26T05:41:39.110Z,13.16
2017-10-26T05:42:39.683Z,13.05
2017-10-26T05:43:40.256Z,13.09
2017-10-26T05:44:40.825Z,13.05
2017-10-26T05:45:41.397Z,13.08
2017-10-26T05:46:41.968Z,13.13
2017-10-26T05:47:42.540Z,13.11
2017-10-26T05:48:43.111Z,13.09
2017-10-26T05:49:43.682Z,13.00
2017-10-26T05:50:44.255Z,13.04
2017-10-26T05:51:44.826Z,13.08
2017-10-26T05:52:45.410Z,13.04
2017-10-26T05:53:45.982Z,13.12
2017-10-26T05:54:46.554Z,13.08
2017-10-26T05:55:47.123Z,13.09
2017-10-26T05:56:47.707Z,13.05
2017-10-26T05:57:48.280Z,13.05
2017-10-26T05:58:48.851Z,13.09
2017-10-26T05:59:49.425Z,13.05
2017-10-26T06:00:49.997Z,13.05
2017-10-26T06:01:50.578Z,13.05
2017-10-26T06:02:51.154Z,13.16
2017-10-26T06:03:51.734Z,13.09
2017-10-26T06:04:52.307Z,13.11
2017-10-26T06:05:52.878Z,13.19
2017-10-26T06:06:53.450Z,13.01
2017-10-26T06:07:54.033Z,13.09
2017-10-26T06:08:54.602Z,13.09
2017-10-26T06:09:55.176Z,13.03
2017-10-26T06:10:55.748Z,13.08
2017-10-26T06:11:56.330Z,13.00
2017-10-26T06:12:56.903Z,13.09
2017-10-26T06:13:57.479Z,13.08
2017-10-26T06:14:58.047Z,13.04
2017-10-26T06:15:58.618Z,13.15
2017-10-26T06:16:59.191Z,13.13
2017-10-26T06:17:59.762Z,13.11
2017-10-26T06:19:00.340Z,13.23
2017-10-26T06:20:00.907Z,13.12
2017-10-26T06:21:01.481Z,13.28
2017-10-26T06:22:02.052Z,13.15
2017-10-26T06:23:02.623Z,13.12
2017-10-26T06:24:03.194Z,13.22
2017-10-26T06:25:03.779Z,13.25
2017-10-26T06:26:04.352Z,13.22
2017-10-26T06:27:04.923Z,13.23
2017-10-26T06:28:05.495Z,13.15
2017-10-26T06:29:06.065Z,13.19
2017-10-26T06:30:06.636Z,13.22
2017-10-26T06:31:07.209Z,13.30
2017-10-26T06:32:07.780Z,13.23
2017-10-26T06:33:08.351Z,13.19
2017-10-26T06:34:08.922Z,13.28
2017-10-26T06:35:09.500Z,13.23
2017-10-26T06:36:10.067Z,13.23
2017-10-26T06:37:10.740Z,13.33
2017-10-26T06:38:11.312Z,13.28
2017-10-26T06:39:11.884Z,13.33
2017-10-26T06:40:12.467Z,13.31
2017-10-26T06:41:13.048Z,13.38
2017-10-26T06:42:13.627Z,13.35
2017-10-26T06:43:14.194Z,13.31
2017-10-26T06:44:14.767Z,13.38
2017-10-26T06:45:15.342Z,13.27
2017-10-26T06:46:15.914Z,13.33
2017-10-26T06:47:16.488Z,13.30
2017-10-26T06:48:17.061Z,13.30
2017-10-26T06:49:17.634Z,13.39
2017-10-26T06:50:18.210Z,13.41
2017-10-26T06:51:18.777Z,13.39
2017-10-26T06:52:19.351Z,13.41
2017-10-26T06:53:19.926Z,13.44
2017-10-26T06:54:20.500Z,13.42
2017-10-26T06:55:21.073Z,13.42
2017-10-26T06:56:21.645Z,13.46
2017-10-26T06:57:22.218Z,13.44
2017-10-26T06:58:22.791Z,13.42
2017-10-26T06:59:23.364Z,13.39
2017-10-26T07:00:23.948Z,13.46
2017-10-26T07:01:24.522Z,13.42
2017-10-26T07:02:25.094Z,13.41
2017-10-26T07:03:25.666Z,13.50
2017-10-26T07:04:26.238Z,13.31
2017-10-26T07:05:26.811Z,13.46
2017-10-26T07:06:27.385Z,13.44
2017-10-26T07:07:27.965Z,13.53
2017-10-26T07:08:28.543Z,13.52
2017-10-26T07:09:29.117Z,13.42
2017-10-26T07:10:29.692Z,13.47
2017-10-26T07:11:30.268Z,13.53
2017-10-26T07:12:30.841Z,13.41
2017-10-26T07:13:31.414Z,13.46
2017-10-26T07:14:31.988Z,13.50
2017-10-26T07:15:32.577Z,13.42
2017-10-26T07:16:33.146Z,13.56
2017-10-26T07:17:33.721Z,13.50
2017-10-26T07:18:34.294Z,13.53
2017-10-26T07:19:34.874Z,13.52
2017-10-26T07:20:35.445Z,13.46
2017-10-26T07:21:36.020Z,13.49
2017-10-26T07:22:36.594Z,13.52
2017-10-26T07:23:37.168Z,13.42
2017-10-26T07:24:37.741Z,13.56
2017-10-26T07:25:38.316Z,13.50
2017-10-26T07:26:38.891Z,13.59
2017-10-26T07:27:39.466Z,13.50
2017-10-26T07:28:40.042Z,13.54
2017-10-26T07:29:40.636Z,13.54
2017-10-26T07:30:41.196Z,13.57
2017-10-26T07:31:41.771Z,13.53
2017-10-26T07:32:42.344Z,13.67
2017-10-26T07:33:42.917Z,13.57
2017-10-26T07:34:43.502Z,13.68
2017-10-26T07:35:44.078Z,13.63
2017-10-26T07:36:44.659Z,13.68
2017-10-26T07:37:45.234Z,13.65
2017-10-26T07:38:45.818Z,13.70
2017-10-26T07:39:46.400Z,13.59
2017-10-26T07:40:47.007Z,13.71
2017-10-26T07:41:47.560Z,13.75
2017-10-26T07:42:48.134Z,13.67
2017-10-26T07:43:48.709Z,13.75
2017-10-26T07:44:49.293Z,13.74
2017-10-26T07:45:49.867Z,13.74
2017-10-26T07:46:50.441Z,13.68
2017-10-26T07:47:51.015Z,13.72
2017-10-26T07:48:51.590Z,13.78
2017-10-26T07:49:52.162Z,13.75
2017-10-26T07:50:52.737Z,13.71
2017-10-26T07:51:53.312Z,13.71
2017-10-26T07:52:53.885Z,13.74
2017-10-26T07:53:54.461Z,13.74
2017-10-26T07:54:55.035Z,13.70
2017-10-26T07:55:55.609Z,13.72
2017-10-26T07:56:56.194Z,13.71
2017-10-26T07:57:56.768Z,13.78
2017-10-26T07:58:57.354Z,13.85
2017-10-26T07:59:57.938Z,13.74
2017-10-26T08:00:58.514Z,13.77
2017-10-26T08:01:59.088Z,13.78
2017-10-26T08:02:59.663Z,13.72
2017-10-26T08:04:00.236Z,13.86
2017-10-26T08:05:00.809Z,13.81
2017-10-26T08:06:01.385Z,13.92
2017-10-26T08:07:01.961Z,13.90
2017-10-26T08:08:02.536Z,13.93
2017-10-26T08:09:03.108Z,13.92
2017-10-26T08:10:03.682Z,13.90
2017-10-26T08:11:04.257Z,13.90
2017-10-26T08:12:04.843Z,13.87
2017-10-26T08:13:05.415Z,13.99
2017-10-26T08:14:05.991Z,13.93
2017-10-26T08:15:06.567Z,13.93
2017-10-26T08:16:07.145Z,13.90
2017-10-26T08:17:07.729Z,13.97
2017-10-26T08:18:08.306Z,13.99
2017-10-26T08:19:08.882Z,14.08
2017-10-26T08:20:09.458Z,14.14
2017-10-26T08:21:10.035Z,14.07
2017-10-26T08:22:10.619Z,14.04
2017-10-26T08:23:11.194Z,14.10
2017-10-26T08:24:11.771Z,14.14
2017-10-26T08:25:12.349Z,14.15
2017-10-26T08:26:12.924Z,14.10
2017-10-26T08:27:13.499Z,14.23
2017-10-26T08:28:14.075Z,14.17
2017-10-26T08:29:14.650Z,14.07
2017-10-26T08:30:15.227Z,14.14
2017-10-26T08:31:15.802Z,14.12
2017-10-26T08:32:16.392Z,14.14
2017-10-26T08:33:16.963Z,14.12
2017-10-26T08:34:17.537Z,14.20
2017-10-26T08:35:18.112Z,14.14
2017-10-26T08:36:18.689Z,14.22
2017-10-26T08:37:19.263Z,14.22
2017-10-26T08:38:19.852Z,14.32
2017-10-26T08:39:20.416Z,14.30
2017-10-26T08:40:21.002Z,14.17
2017-10-26T08:41:21.576Z,14.20
2017-10-26T08:42:22.151Z,14.18
2017-10-26T08:43:22.741Z,14.30
2017-10-26T08:44:23.308Z,14.23
2017-10-26T08:45:23.884Z,14.29
2017-10-26T08:46:24.455Z,14.30
2017-10-26T08:47:25.029Z,14.37
2017-10-26T08:48:25.605Z,14.25
2017-10-26T08:49:26.183Z,14.32
2017-10-26T08:50:26.757Z,14.20
2017-10-26T08:51:27.330Z,14.30
2017-10-26T08:52:27.904Z,14.28
2017-10-26T08:53:28.480Z,14.35
2017-10-26T08:54:29.061Z,14.28
2017-10-26T08:55:29.627Z,14.35
2017-10-26T08:56:30.202Z,14.23
2017-10-26T08:57:30.777Z,14.35
2017-10-26T08:58:31.352Z,14.32
2017-10-26T08:59:31.925Z,14.32
2017-10-26T09:00:32.500Z,14.40
2017-10-26T09:01:33.076Z,14.29
2017-10-26T09:02:33.660Z,14.33
2017-10-26T09:03:34.234Z,14.33
2017-10-26T09:04:34.811Z,14.48
2017-10-26T09:05:35.385Z,14.37
2017-10-26T09:06:35.960Z,14.29
2017-10-26T09:07:36.535Z,14.29
2017-10-26T09:08:37.107Z,14.33
2017-10-26T09:09:37.683Z,14.43
2017-10-26T09:10:38.258Z,14.47
2017-10-26T09:11:38.834Z,14.40
2017-10-26T09:12:39.408Z,14.32
2017-10-26T09:13:39.982Z,14.36
2017-10-26T09:14:40.555Z,14.48
2017-10-26T09:15:41.130Z,14.44
2017-10-26T09:16:41.706Z,14.45
2017-10-26T09:17:42.284Z,14.50
2017-10-26T09:18:42.857Z,14.54
2017-10-26T09:19:43.431Z,14.40
2017-10-26T09:20:44.008Z,14.47
2017-10-26T09:21:44.583Z,14.48
2017-10-26T09:22:45.158Z,14.59
2017-10-26T09:23:45.737Z,14.54
2017-10-26T09:24:46.308Z,14.50
2017-10-26T09:25:46.883Z,14.60
2017-10-26T09:26:47.469Z,14.58
2017-10-26T09:27:48.042Z,14.58
2017-10-26T09:28:48.616Z,14.65
2017-10-26T09:29:49.191Z,14.59
2017-10-26T09:30:49.766Z,14.63
2017-10-26T09:31:50.347Z,14.59
2017-10-26T09:32:50.917Z,14.55
2017-10-26T09:33:51.501Z,14.58
2017-10-26T09:34:52.067Z,14.60
2017-10-26T09:35:52.643Z,14.63
2017-10-26T09:36:53.228Z,14.68
2017-10-26T09:37:53.804Z,14.65
2017-10-26T09:38:54.380Z,14.72
2017-10-26T09:39:54.957Z,14.68
2017-10-26T09:40:55.531Z,14.82
2017-10-26T09:41:56.108Z,14.77
2017-10-26T09:42:56.683Z,14.85
2017-10-26T09:43:57.268Z,14.68
2017-10-26T09:44:57.843Z,14.85
2017-10-26T09:45:58.421Z,14.89
2017-10-26T09:46:58.994Z,14.91
2017-10-26T09:47:59.572Z,14.91
2017-10-26T09:49:00.147Z,14.96
2017-10-26T09:50:00.723Z,14.81
2017-10-26T09:51:01.297Z,14.86
2017-10-26T09:52:01.875Z,14.91
2017-10-26T09:53:02.452Z,14.97
2017-10-26T09:54:03.027Z,15.02
2017-10-26T09:55:03.602Z,14.89
2017-10-26T09:56:04.177Z,14.73
2017-10-26T09:57:04.754Z,14.84
2017-10-26T09:58:05.331Z,14.96
2017-10-26T09:59:05.906Z,14.89
2017-10-26T10:00:06.482Z,14.89
2017-10-26T10:01:07.057Z,14.79
2017-10-26T10:02:07.654Z,14.82
2017-10-26T10:03:08.218Z,14.82
2017-10-26T10:04:08.797Z,14.78
2017-10-26T10:05:09.378Z,14.86
2017-10-26T10:06:09.949Z,14.92
2017-10-26T10:07:10.522Z,14.88
2017-10-26T10:08:11.098Z,14.86
2017-10-26T10:09:11.675Z,14.96
2017-10-26T10:10:12.251Z,14.96
2017-10-26T10:11:12.838Z,14.89
2017-10-26T10:12:13.416Z,14.99
2017-10-26T10:13:13.991Z,15.03
2017-10-26T10:14:14.571Z,15.10
2017-10-26T10:15:15.140Z,15.09
2017-10-26T10:16:15.716Z,15.11
2017-10-26T10:17:16.299Z,15.04
2017-10-26T10:18:16.867Z,15.09
2017-10-26T10:19:17.444Z,15.04
2017-10-26T10:20:18.020Z,15.06
2017-10-26T10:21:18.595Z,15.10
2017-10-26T10:22:19.173Z,15.10
2017-10-26T10:23:19.749Z,15.10
2017-10-26T10:24:20.325Z,15.09
2017-10-26T10:25:20.900Z,15.10
2017-10-26T10:26:21.479Z,15.10
2017-10-26T10:27:22.056Z,15.11
2017-10-26T10:28:22.631Z,15.19
2017-10-26T10:29:23.206Z,15.18
2017-10-26T10:30:23.783Z,15.15
2017-10-26T10:31:24.360Z,15.15
2017-10-26T10:32:24.937Z,15.27
2017-10-26T10:33:25.513Z,15.18
2017-10-26T10:34:26.093Z,15.17
2017-10-26T10:35:26.667Z,15.19
2017-10-26T10:36:27.241Z,15.28
2017-10-26T10:37:27.818Z,15.24
2017-10-26T10:38:28.394Z,15.27
2017-10-26T10:39:28.969Z,15.28
2017-10-26T10:40:29.548Z,15.27
2017-10-26T10:41:30.123Z,15.21
2017-10-26T10:42:30.698Z,15.19
2017-10-26T10:43:31.285Z,15.25
2017-10-26T10:44:31.867Z,15.31
2017-10-26T10:45:32.439Z,15.37
2017-10-26T10:46:33.012Z,15.49
2017-10-26T10:47:33.589Z,15.37
2017-10-26T10:48:34.168Z,15.46
2017-10-26T10:49:34.740Z,15.49
2017-10-26T10:50:35.316Z,15.68
2017-10-26T10:51:35.894Z,15.72
2017-10-26T10:52:36.481Z,15.67
2017-10-26T10:53:37.067Z,15.72
2017-10-26T10:54:37.643Z,15.92
2017-10-26T10:55:38.219Z,16.09
2017-10-26T10:56:38.794Z,16.09
2017-10-26T10:57:39.372Z,15.97
2017-10-26T10:58:39.949Z,15.92
2017-10-26T10:59:40.537Z,16.00
2017-10-26T11:00:41.125Z,16.09
2017-10-26T11:01:41.711Z,16.09
2017-10-26T11:02:42.287Z,16.09
2017-10-26T11:03:42.863Z,16.08
2017-10-26T11:04:43.440Z,16.08
2017-10-26T11:05:44.017Z,16.08
2017-10-26T11:06:44.594Z,15.90
2017-10-26T11:07:45.169Z,15.82
2017-10-26T11:08:45.748Z,15.94
2017-10-26T11:09:46.333Z,15.86
2017-10-26T11:10:46.909Z,15.94
2017-10-26T11:11:47.487Z,16.04
2017-10-26T11:12:48.067Z,16.20
2017-10-26T11:13:48.642Z,16.31
2017-10-26T11:14:49.217Z,16.28
2017-10-26T11:15:49.794Z,15.97
2017-10-26T11:16:50.371Z,16.01
2017-10-26T11:17:50.948Z,16.05
2017-10-26T11:18:51.525Z,16.10
2017-10-26T11:19:52.102Z,16.09
2017-10-26T11:20:52.677Z,16.04
2017-10-26T11:21:53.253Z,16.02
2017-10-26T11:22:53.831Z,16.09
2017-10-26T11:23:54.407Z,16.12
2017-10-26T11:24:54.984Z,16.10
2017-10-26T11:25:55.562Z,16.05
2017-10-26T11:26:56.136Z,16.05
2017-10-26T11:27:56.715Z,16.16
2017-10-26T11:28:57.303Z,16.05
2017-10-26T11:29:57.879Z,16.04
2017-10-26T11:30:58.457Z,16.10
2017-10-26T11:31:59.033Z,16.10
2017-10-26T11:32:59.622Z,16.17
2017-10-26T11:34:00.208Z,16.08
2017-10-26T11:35:00.885Z,15.95
2017-10-26T11:36:01.468Z,16.09
2017-10-26T11:37:02.041Z,15.95
2017-10-26T11:38:02.618Z,15.97
2017-10-26T11:39:03.208Z,15.92
2017-10-26T11:40:03.781Z,15.98
2017-10-26T11:41:04.356Z,15.97
2017-10-26T11:42:04.933Z,15.94
2017-10-26T11:43:05.509Z,16.08
2017-10-26T11:44:06.095Z,16.02
2017-10-26T11:45:06.674Z,16.20
2017-10-26T11:46:07.250Z,16.12
2017-10-26T11:47:07.827Z,16.28
2017-10-26T11:48:08.419Z,16.26
2017-10-26T11:49:08.991Z,16.42
2017-10-26T11:50:09.568Z,16.31
2017-10-26T11:51:10.145Z,16.36
2017-10-26T11:52:10.722Z,16.36
2017-10-26T11:53:11.301Z,16.24
2017-10-26T11:54:11.877Z,16.41
2017-10-26T11:55:12.452Z,16.49
2017-10-26T11:56:13.028Z,16.43
2017-10-26T11:57:13.605Z,16.46
2017-10-26T11:58:14.187Z,16.39
2017-10-26T11:59:14.769Z,16.28
2017-10-26T12:00:15.359Z,16.31
2017-10-26T12:01:15.941Z,16.33
2017-10-26T12:02:16.521Z,16.28
2017-10-26T12:03:17.098Z,16.28
2017-10-26T12:04:17.676Z,16.39
2017-10-26T12:05:18.254Z,16.39
2017-10-26T12:06:18.830Z,16.39
2017-10-26T12:07:19.417Z,16.39
2017-10-26T12:08:19.996Z,16.46
2017-10-26T12:09:20.571Z,16.41
2017-10-26T12:10:21.147Z,16.39
2017-10-26T12:11:21.724Z,16.33
2017-10-26T12:12:22.311Z,16.35
2017-10-26T12:13:22.888Z,16.32
2017-10-26T12:14:23.466Z,16.33
2017-10-26T12:15:24.042Z,16.21
2017-10-26T12:16:24.629Z,16.26
2017-10-26T12:17:25.207Z,16.42
2017-10-26T12:18:25.784Z,16.26
2017-10-26T12:19:26.360Z,16.35
2017-10-26T12:20:26.936Z,16.42
2017-10-26T12:21:27.514Z,16.23
2017-10-26T12:22:28.091Z,16.35
2017-10-26T12:23:28.668Z,16.33
2017-10-26T12:24:29.245Z,16.38
2017-10-26T12:25:29.822Z,16.24
2017-10-26T12:26:30.397Z,16.36
2017-10-26T12:27:30.984Z,16.38
2017-10-26T12:28:31.560Z,16.23
2017-10-26T12:29:32.138Z,16.26
2017-10-26T12:30:32.716Z,16.32
2017-10-26T12:31:33.293Z,16.31
2017-10-26T12:32:33.869Z,16.36
2017-10-26T12:33:34.444Z,16.31
2017-10-26T12:34:35.023Z,16.38
2017-10-26T12:35:35.609Z,16.42
2017-10-26T12:36:36.179Z,16.33
2017-10-26T12:37:36.755Z,16.39
2017-10-26T12:38:37.334Z,16.42
2017-10-26T12:39:37.911Z,16.51
2017-10-26T12:40:38.487Z,16.32
2017-10-26T12:41:39.064Z,16.41
2017-10-26T12:42:39.638Z,16.31
2017-10-26T12:43:40.218Z,16.38
2017-10-26T12:44:40.801Z,16.28
2017-10-26T12:45:41.373Z,16.20
2017-10-26T12:46:41.948Z,16.23
2017-10-26T12:47:42.524Z,16.39
2017-10-26T12:48:43.103Z,16.35
2017-10-26T12:49:43.679Z,16.24
2017-10-26T12:50:44.266Z,16.29
2017-10-26T12:51:44.855Z,16.35
2017-10-26T12:52:45.439Z,16.33
2017-10-26T12:53:46.016Z,16.31
2017-10-26T12:54:46.592Z,16.24
2017-10-26T12:55:47.168Z,16.29
2017-10-26T12:56:47.746Z,16.32
2017-10-26T12:57:48.324Z,16.28
2017-10-26T12:58:48.903Z,16.28
2017-10-26T12:59:49.489Z,16.39